sensor_id;sensor_type;location;lat;lon;timestamp;P1;durP1;ratioP1;P2;durP2;ratioP2
15633;SDS011;14654;48.898;8.308;2022-12-22T00:00:15;2.77;;;1.63;;
15633;SDS011;14654;48.898;8.308;2022-12-22T00:02:59;2.40;;;1.53;;
15633;SDS011;14654;48.898;8.308;2022-12-22T00:05:43;1.93;;;1.53;;
15633;SDS011;14654;48.898;8.308;2022-12-22T00:08:27;2.30;;;1.50;;
15633;SDS011;14654;48.898;8.308;2022-12-22T00:11:11;2.17;;;1.40;;
15633;SDS011;14654;48.898;8.308;2022-12-22T00:13:56;1.57;;;1.23;;
15633;SDS011;14654;48.898;8.308;2022-12-22T00:16:41;3.50;;;1.50;;
15633;SDS011;14654;48.898;8.308;2022-12-22T00:19:25;1.73;;;1.30;;
15633;SDS011;14654;48.898;8.308;2022-12-22T00:22:20;2.03;;;1.27;;
15633;SDS011;14654;48.898;8.308;2022-12-22T00:25:08;2.27;;;1.33;;
15633;SDS011;14654;48.898;8.308;2022-12-22T00:27:56;2.53;;;1.57;;
15633;SDS011;14654;48.898;8.308;2022-12-22T00:30:39;2.50;;;1.40;;
15633;SDS011;14654;48.898;8.308;2022-12-22T00:33:23;3.13;;;1.17;;
15633;SDS011;14654;48.898;8.308;2022-12-22T00:36:09;1.57;;;1.30;;
15633;SDS011;14654;48.898;8.308;2022-12-22T00:38:54;1.60;;;1.37;;
15633;SDS011;14654;48.898;8.308;2022-12-22T00:41:38;2.50;;;1.13;;
15633;SDS011;14654;48.898;8.308;2022-12-22T00:44:22;1.90;;;1.30;;
15633;SDS011;14654;48.898;8.308;2022-12-22T00:47:13;2.00;;;1.40;;
15633;SDS011;14654;48.898;8.308;2022-12-22T00:50:07;3.50;;;1.53;;
15633;SDS011;14654;48.898;8.308;2022-12-22T00:52:51;2.73;;;1.57;;
15633;SDS011;14654;48.898;8.308;2022-12-22T00:55:35;2.97;;;1.77;;
15633;SDS011;14654;48.898;8.308;2022-12-22T00:58:19;3.07;;;1.60;;
15633;SDS011;14654;48.898;8.308;2022-12-22T01:01:06;2.37;;;1.60;;
15633;SDS011;14654;48.898;8.308;2022-12-22T01:03:50;2.77;;;1.60;;
15633;SDS011;14654;48.898;8.308;2022-12-22T01:06:34;2.23;;;1.50;;
15633;SDS011;14654;48.898;8.308;2022-12-22T01:09:19;2.03;;;1.33;;
15633;SDS011;14654;48.898;8.308;2022-12-22T01:12:08;2.07;;;1.20;;
15633;SDS011;14654;48.898;8.308;2022-12-22T01:14:56;2.10;;;1.40;;
15633;SDS011;14654;48.898;8.308;2022-12-22T01:17:40;3.57;;;1.33;;
15633;SDS011;14654;48.898;8.308;2022-12-22T01:20:24;1.73;;;1.27;;
15633;SDS011;14654;48.898;8.308;2022-12-22T01:23:08;1.40;;;1.27;;
15633;SDS011;14654;48.898;8.308;2022-12-22T01:25:53;1.70;;;1.27;;
15633;SDS011;14654;48.898;8.308;2022-12-22T01:28:37;1.87;;;1.40;;
15633;SDS011;14654;48.898;8.308;2022-12-22T01:34:10;1.17;;;1.00;;
15633;SDS011;14654;48.898;8.308;2022-12-22T01:36:54;1.60;;;1.20;;
15633;SDS011;14654;48.898;8.308;2022-12-22T01:39:38;2.10;;;1.30;;
15633;SDS011;14654;48.898;8.308;2022-12-22T01:42:22;2.10;;;1.20;;
15633;SDS011;14654;48.898;8.308;2022-12-22T01:45:12;1.43;;;1.00;;
15633;SDS011;14654;48.898;8.308;2022-12-22T01:48:10;2.30;;;1.30;;
15633;SDS011;14654;48.898;8.308;2022-12-22T01:50:59;1.90;;;0.90;;
15633;SDS011;14654;48.898;8.308;2022-12-22T01:53:46;1.40;;;1.00;;
15633;SDS011;14654;48.898;8.308;2022-12-22T01:56:35;1.47;;;1.00;;
15633;SDS011;14654;48.898;8.308;2022-12-22T01:59:19;1.90;;;1.17;;
15633;SDS011;14654;48.898;8.308;2022-12-22T02:02:04;1.83;;;1.10;;
15633;SDS011;14654;48.898;8.308;2022-12-22T02:04:50;2.67;;;1.00;;
15633;SDS011;14654;48.898;8.308;2022-12-22T02:11:15;2.30;;;1.23;;
15633;SDS011;14654;48.898;8.308;2022-12-22T02:14:34;1.87;;;1.00;;
15633;SDS011;14654;48.898;8.308;2022-12-22T02:17:25;1.10;;;0.83;;
15633;SDS011;14654;48.898;8.308;2022-12-22T02:29:21;2.73;;;1.30;;
15633;SDS011;14654;48.898;8.308;2022-12-22T02:32:10;4.70;;;1.10;;
15633;SDS011;14654;48.898;8.308;2022-12-22T02:34:54;1.37;;;1.03;;
15633;SDS011;14654;48.898;8.308;2022-12-22T02:37:47;1.60;;;0.97;;
15633;SDS011;14654;48.898;8.308;2022-12-22T02:40:48;2.73;;;1.30;;
15633;SDS011;14654;48.898;8.308;2022-12-22T02:44:04;1.30;;;0.90;;
15633;SDS011;14654;48.898;8.308;2022-12-22T02:51:03;1.40;;;0.90;;
15633;SDS011;14654;48.898;8.308;2022-12-22T02:53:32;1.20;;;1.00;;
15633;SDS011;14654;48.898;8.308;2022-12-22T02:56:17;2.83;;;1.20;;
15633;SDS011;14654;48.898;8.308;2022-12-22T02:59:02;1.60;;;0.87;;
15633;SDS011;14654;48.898;8.308;2022-12-22T03:01:45;3.10;;;1.03;;
15633;SDS011;14654;48.898;8.308;2022-12-22T03:04:30;2.50;;;1.07;;
15633;SDS011;14654;48.898;8.308;2022-12-22T03:07:14;1.90;;;1.00;;
15633;SDS011;14654;48.898;8.308;2022-12-22T03:09:59;1.67;;;0.90;;
15633;SDS011;14654;48.898;8.308;2022-12-22T03:12:43;1.27;;;0.80;;
15633;SDS011;14654;48.898;8.308;2022-12-22T03:15:27;2.80;;;1.10;;
15633;SDS011;14654;48.898;8.308;2022-12-22T03:18:11;1.23;;;0.90;;
15633;SDS011;14654;48.898;8.308;2022-12-22T03:20:56;2.97;;;0.90;;
15633;SDS011;14654;48.898;8.308;2022-12-22T03:23:40;1.47;;;0.90;;
15633;SDS011;14654;48.898;8.308;2022-12-22T03:26:24;1.63;;;1.10;;
15633;SDS011;14654;48.898;8.308;2022-12-22T03:28:50;2.40;;;1.00;;
15633;SDS011;14654;48.898;8.308;2022-12-22T03:31:15;1.40;;;0.83;;
15633;SDS011;14654;48.898;8.308;2022-12-22T03:33:41;1.87;;;1.10;;
15633;SDS011;14654;48.898;8.308;2022-12-22T03:36:07;1.13;;;0.70;;
15633;SDS011;14654;48.898;8.308;2022-12-22T03:38:33;0.93;;;0.60;;
15633;SDS011;14654;48.898;8.308;2022-12-22T03:40:59;2.50;;;1.10;;
15633;SDS011;14654;48.898;8.308;2022-12-22T03:43:24;2.20;;;1.00;;
15633;SDS011;14654;48.898;8.308;2022-12-22T03:46:12;1.13;;;0.70;;
15633;SDS011;14654;48.898;8.308;2022-12-22T03:49:02;2.00;;;1.07;;
15633;SDS011;14654;48.898;8.308;2022-12-22T03:51:34;1.97;;;0.90;;
15633;SDS011;14654;48.898;8.308;2022-12-22T03:54:02;1.13;;;0.90;;
15633;SDS011;14654;48.898;8.308;2022-12-22T03:56:28;3.57;;;1.27;;
15633;SDS011;14654;48.898;8.308;2022-12-22T03:58:53;1.50;;;0.90;;
15633;SDS011;14654;48.898;8.308;2022-12-22T04:01:19;2.53;;;1.10;;
15633;SDS011;14654;48.898;8.308;2022-12-22T04:03:45;2.67;;;1.40;;
15633;SDS011;14654;48.898;8.308;2022-12-22T04:06:10;2.63;;;1.13;;
15633;SDS011;14654;48.898;8.308;2022-12-22T04:08:35;1.80;;;0.90;;
15633;SDS011;14654;48.898;8.308;2022-12-22T04:11:01;3.00;;;1.37;;
15633;SDS011;14654;48.898;8.308;2022-12-22T04:13:45;5.03;;;1.47;;
15633;SDS011;14654;48.898;8.308;2022-12-22T04:16:10;2.73;;;1.07;;
15633;SDS011;14654;48.898;8.308;2022-12-22T04:18:38;3.10;;;1.33;;
15633;SDS011;14654;48.898;8.308;2022-12-22T04:21:03;3.23;;;1.50;;
15633;SDS011;14654;48.898;8.308;2022-12-22T04:23:28;3.33;;;1.40;;
15633;SDS011;14654;48.898;8.308;2022-12-22T04:25:54;4.17;;;2.80;;
15633;SDS011;14654;48.898;8.308;2022-12-22T04:28:19;4.80;;;3.30;;
15633;SDS011;14654;48.898;8.308;2022-12-22T04:30:44;4.07;;;2.63;;
15633;SDS011;14654;48.898;8.308;2022-12-22T04:33:12;3.97;;;1.97;;
15633;SDS011;14654;48.898;8.308;2022-12-22T04:35:37;3.30;;;2.13;;
15633;SDS011;14654;48.898;8.308;2022-12-22T04:38:03;2.73;;;1.50;;
15633;SDS011;14654;48.898;8.308;2022-12-22T04:40:28;2.67;;;1.37;;
15633;SDS011;14654;48.898;8.308;2022-12-22T04:42:53;4.23;;;1.80;;
15633;SDS011;14654;48.898;8.308;2022-12-22T04:45:18;4.27;;;1.20;;
15633;SDS011;14654;48.898;8.308;2022-12-22T04:47:44;5.47;;;1.47;;
15633;SDS011;14654;48.898;8.308;2022-12-22T04:50:09;4.27;;;1.60;;
15633;SDS011;14654;48.898;8.308;2022-12-22T04:52:35;2.47;;;1.30;;
15633;SDS011;14654;48.898;8.308;2022-12-22T04:55:00;2.27;;;1.60;;
15633;SDS011;14654;48.898;8.308;2022-12-22T04:57:25;2.97;;;2.03;;
15633;SDS011;14654;48.898;8.308;2022-12-22T04:59:51;4.23;;;2.60;;
15633;SDS011;14654;48.898;8.308;2022-12-22T05:02:16;6.83;;;3.83;;
15633;SDS011;14654;48.898;8.308;2022-12-22T05:04:41;4.63;;;3.60;;
15633;SDS011;14654;48.898;8.308;2022-12-22T05:07:07;3.47;;;2.27;;
15633;SDS011;14654;48.898;8.308;2022-12-22T05:09:33;4.03;;;2.10;;
15633;SDS011;14654;48.898;8.308;2022-12-22T05:11:58;3.83;;;2.30;;
15633;SDS011;14654;48.898;8.308;2022-12-22T05:14:24;6.57;;;5.97;;
15633;SDS011;14654;48.898;8.308;2022-12-22T05:16:49;4.10;;;2.60;;
15633;SDS011;14654;48.898;8.308;2022-12-22T05:19:15;4.20;;;2.00;;
15633;SDS011;14654;48.898;8.308;2022-12-22T05:21:40;5.57;;;1.97;;
15633;SDS011;14654;48.898;8.308;2022-12-22T05:24:06;4.00;;;1.80;;
15633;SDS011;14654;48.898;8.308;2022-12-22T05:26:31;3.33;;;1.40;;
15633;SDS011;14654;48.898;8.308;2022-12-22T05:28:56;3.60;;;1.70;;
15633;SDS011;14654;48.898;8.308;2022-12-22T05:31:22;3.30;;;1.50;;
15633;SDS011;14654;48.898;8.308;2022-12-22T05:33:49;5.87;;;1.77;;
15633;SDS011;14654;48.898;8.308;2022-12-22T05:36:15;4.77;;;1.63;;
15633;SDS011;14654;48.898;8.308;2022-12-22T05:38:41;3.63;;;1.30;;
15633;SDS011;14654;48.898;8.308;2022-12-22T05:41:08;3.77;;;1.57;;
15633;SDS011;14654;48.898;8.308;2022-12-22T05:43:34;6.17;;;1.67;;
15633;SDS011;14654;48.898;8.308;2022-12-22T05:46:01;5.17;;;1.90;;
15633;SDS011;14654;48.898;8.308;2022-12-22T05:48:33;3.23;;;1.77;;
15633;SDS011;14654;48.898;8.308;2022-12-22T05:50:59;4.83;;;1.97;;
15633;SDS011;14654;48.898;8.308;2022-12-22T05:53:24;6.30;;;1.97;;
15633;SDS011;14654;48.898;8.308;2022-12-22T05:55:50;5.90;;;2.20;;
15633;SDS011;14654;48.898;8.308;2022-12-22T05:58:16;6.47;;;2.30;;
15633;SDS011;14654;48.898;8.308;2022-12-22T06:00:42;6.37;;;2.30;;
15633;SDS011;14654;48.898;8.308;2022-12-22T06:03:07;4.23;;;2.20;;
15633;SDS011;14654;48.898;8.308;2022-12-22T06:05:33;5.57;;;2.47;;
15633;SDS011;14654;48.898;8.308;2022-12-22T06:07:58;4.67;;;2.20;;
15633;SDS011;14654;48.898;8.308;2022-12-22T06:10:23;6.07;;;2.10;;
15633;SDS011;14654;48.898;8.308;2022-12-22T06:12:49;5.40;;;2.03;;
15633;SDS011;14654;48.898;8.308;2022-12-22T06:15:14;6.27;;;2.27;;
15633;SDS011;14654;48.898;8.308;2022-12-22T06:17:40;5.63;;;2.03;;
15633;SDS011;14654;48.898;8.308;2022-12-22T06:20:06;4.57;;;2.10;;
15633;SDS011;14654;48.898;8.308;2022-12-22T06:22:32;6.30;;;2.10;;
15633;SDS011;14654;48.898;8.308;2022-12-22T06:24:58;7.30;;;2.37;;
15633;SDS011;14654;48.898;8.308;2022-12-22T06:27:24;6.63;;;2.23;;
15633;SDS011;14654;48.898;8.308;2022-12-22T06:29:49;5.50;;;2.27;;
15633;SDS011;14654;48.898;8.308;2022-12-22T06:32:14;4.70;;;2.10;;
15633;SDS011;14654;48.898;8.308;2022-12-22T06:34:40;4.53;;;2.10;;
15633;SDS011;14654;48.898;8.308;2022-12-22T06:37:05;6.10;;;2.37;;
15633;SDS011;14654;48.898;8.308;2022-12-22T06:39:30;5.67;;;2.30;;
15633;SDS011;14654;48.898;8.308;2022-12-22T06:41:56;7.53;;;2.50;;
15633;SDS011;14654;48.898;8.308;2022-12-22T06:44:39;6.27;;;2.40;;
15633;SDS011;14654;48.898;8.308;2022-12-22T06:47:05;6.47;;;2.43;;
15633;SDS011;14654;48.898;8.308;2022-12-22T06:49:30;5.13;;;2.13;;
15633;SDS011;14654;48.898;8.308;2022-12-22T06:51:55;5.07;;;1.90;;
15633;SDS011;14654;48.898;8.308;2022-12-22T06:54:21;6.50;;;2.33;;
15633;SDS011;14654;48.898;8.308;2022-12-22T06:56:46;7.20;;;2.37;;
15633;SDS011;14654;48.898;8.308;2022-12-22T06:59:11;6.60;;;2.30;;
15633;SDS011;14654;48.898;8.308;2022-12-22T07:01:37;5.20;;;2.13;;
15633;SDS011;14654;48.898;8.308;2022-12-22T07:04:02;8.17;;;2.47;;
15633;SDS011;14654;48.898;8.308;2022-12-22T07:06:30;5.63;;;2.43;;
15633;SDS011;14654;48.898;8.308;2022-12-22T07:08:56;6.10;;;2.20;;
15633;SDS011;14654;48.898;8.308;2022-12-22T07:11:21;5.80;;;2.27;;
15633;SDS011;14654;48.898;8.308;2022-12-22T07:13:46;5.07;;;1.97;;
15633;SDS011;14654;48.898;8.308;2022-12-22T07:16:12;6.17;;;2.10;;
15633;SDS011;14654;48.898;8.308;2022-12-22T07:18:40;6.23;;;2.33;;
15633;SDS011;14654;48.898;8.308;2022-12-22T07:21:07;8.63;;;2.57;;
15633;SDS011;14654;48.898;8.308;2022-12-22T07:23:35;8.73;;;2.70;;
15633;SDS011;14654;48.898;8.308;2022-12-22T07:26:01;6.60;;;2.60;;
15633;SDS011;14654;48.898;8.308;2022-12-22T07:28:28;7.40;;;2.63;;
15633;SDS011;14654;48.898;8.308;2022-12-22T07:30:53;8.23;;;2.63;;
15633;SDS011;14654;48.898;8.308;2022-12-22T07:33:19;6.77;;;2.73;;
15633;SDS011;14654;48.898;8.308;2022-12-22T07:35:45;7.00;;;2.13;;
15633;SDS011;14654;48.898;8.308;2022-12-22T07:38:11;7.60;;;2.90;;
15633;SDS011;14654;48.898;8.308;2022-12-22T07:40:36;5.70;;;2.17;;
15633;SDS011;14654;48.898;8.308;2022-12-22T07:43:01;7.10;;;2.20;;
15633;SDS011;14654;48.898;8.308;2022-12-22T07:45:27;7.63;;;2.10;;
15633;SDS011;14654;48.898;8.308;2022-12-22T07:47:59;5.63;;;2.03;;
15633;SDS011;14654;48.898;8.308;2022-12-22T07:50:25;5.57;;;2.37;;
15633;SDS011;14654;48.898;8.308;2022-12-22T07:52:57;5.53;;;2.50;;
15633;SDS011;14654;48.898;8.308;2022-12-22T07:55:25;6.23;;;2.10;;
15633;SDS011;14654;48.898;8.308;2022-12-22T07:57:52;6.80;;;2.40;;
15633;SDS011;14654;48.898;8.308;2022-12-22T08:00:18;6.17;;;2.50;;
15633;SDS011;14654;48.898;8.308;2022-12-22T08:02:54;7.33;;;2.17;;
15633;SDS011;14654;48.898;8.308;2022-12-22T08:05:21;6.77;;;2.43;;
15633;SDS011;14654;48.898;8.308;2022-12-22T08:07:48;8.70;;;2.77;;
15633;SDS011;14654;48.898;8.308;2022-12-22T08:10:15;5.37;;;2.20;;
15633;SDS011;14654;48.898;8.308;2022-12-22T08:12:40;5.60;;;2.43;;
15633;SDS011;14654;48.898;8.308;2022-12-22T08:15:06;5.43;;;2.07;;
15633;SDS011;14654;48.898;8.308;2022-12-22T08:17:32;8.27;;;2.40;;
15633;SDS011;14654;48.898;8.308;2022-12-22T08:19:57;6.37;;;2.33;;
15633;SDS011;14654;48.898;8.308;2022-12-22T08:22:23;6.67;;;2.60;;
15633;SDS011;14654;48.898;8.308;2022-12-22T08:24:49;6.83;;;2.33;;
15633;SDS011;14654;48.898;8.308;2022-12-22T08:27:16;4.93;;;2.10;;
15633;SDS011;14654;48.898;8.308;2022-12-22T08:29:46;5.37;;;2.17;;
15633;SDS011;14654;48.898;8.308;2022-12-22T08:32:14;8.87;;;2.80;;
15633;SDS011;14654;48.898;8.308;2022-12-22T08:34:40;5.53;;;2.60;;
15633;SDS011;14654;48.898;8.308;2022-12-22T08:37:06;4.70;;;2.33;;
15633;SDS011;14654;48.898;8.308;2022-12-22T08:39:37;6.97;;;2.30;;
15633;SDS011;14654;48.898;8.308;2022-12-22T08:42:04;7.80;;;2.50;;
15633;SDS011;14654;48.898;8.308;2022-12-22T08:44:33;8.63;;;3.07;;
15633;SDS011;14654;48.898;8.308;2022-12-22T08:47:00;11.60;;;3.43;;
15633;SDS011;14654;48.898;8.308;2022-12-22T08:49:26;9.27;;;2.90;;
15633;SDS011;14654;48.898;8.308;2022-12-22T08:51:51;8.53;;;3.20;;
15633;SDS011;14654;48.898;8.308;2022-12-22T08:54:18;8.03;;;2.77;;
15633;SDS011;14654;48.898;8.308;2022-12-22T08:56:44;7.97;;;2.43;;
15633;SDS011;14654;48.898;8.308;2022-12-22T08:59:09;7.53;;;2.43;;
15633;SDS011;14654;48.898;8.308;2022-12-22T09:01:36;8.67;;;3.20;;
15633;SDS011;14654;48.898;8.308;2022-12-22T09:04:03;7.93;;;2.77;;
15633;SDS011;14654;48.898;8.308;2022-12-22T09:06:29;8.90;;;2.87;;
15633;SDS011;14654;48.898;8.308;2022-12-22T09:08:57;7.90;;;2.73;;
15633;SDS011;14654;48.898;8.308;2022-12-22T09:11:24;9.50;;;3.07;;
15633;SDS011;14654;48.898;8.308;2022-12-22T09:13:51;7.50;;;2.43;;
15633;SDS011;14654;48.898;8.308;2022-12-22T09:16:17;7.27;;;2.80;;
15633;SDS011;14654;48.898;8.308;2022-12-22T09:18:44;9.50;;;3.00;;
15633;SDS011;14654;48.898;8.308;2022-12-22T09:21:09;7.20;;;2.90;;
15633;SDS011;14654;48.898;8.308;2022-12-22T09:23:34;8.67;;;3.30;;
15633;SDS011;14654;48.898;8.308;2022-12-22T09:26:05;8.97;;;2.87;;
15633;SDS011;14654;48.898;8.308;2022-12-22T09:28:31;9.03;;;2.77;;
15633;SDS011;14654;48.898;8.308;2022-12-22T09:30:56;11.53;;;4.40;;
15633;SDS011;14654;48.898;8.308;2022-12-22T09:33:22;6.70;;;3.77;;
15633;SDS011;14654;48.898;8.308;2022-12-22T09:35:50;8.70;;;3.93;;
15633;SDS011;14654;48.898;8.308;2022-12-22T09:38:15;10.30;;;5.80;;
15633;SDS011;14654;48.898;8.308;2022-12-22T09:40:40;9.70;;;4.20;;
15633;SDS011;14654;48.898;8.308;2022-12-22T09:43:07;9.60;;;4.87;;
15633;SDS011;14654;48.898;8.308;2022-12-22T09:45:36;10.63;;;5.90;;
15633;SDS011;14654;48.898;8.308;2022-12-22T09:48:02;10.77;;;5.63;;
15633;SDS011;14654;48.898;8.308;2022-12-22T09:50:27;10.60;;;7.07;;
15633;SDS011;14654;48.898;8.308;2022-12-22T09:53:04;9.47;;;6.53;;
15633;SDS011;14654;48.898;8.308;2022-12-22T09:58:24;7.10;;;4.27;;
15633;SDS011;14654;48.898;8.308;2022-12-22T10:06:16;10.03;;;4.53;;
15633;SDS011;14654;48.898;8.308;2022-12-22T10:08:45;11.33;;;7.13;;
15633;SDS011;14654;48.898;8.308;2022-12-22T10:11:14;9.27;;;5.77;;
15633;SDS011;14654;48.898;8.308;2022-12-22T10:13:41;9.43;;;5.17;;
15633;SDS011;14654;48.898;8.308;2022-12-22T10:16:18;7.50;;;5.67;;
15633;SDS011;14654;48.898;8.308;2022-12-22T10:18:58;8.30;;;5.57;;
15633;SDS011;14654;48.898;8.308;2022-12-22T10:21:30;14.03;;;12.23;;
15633;SDS011;14654;48.898;8.308;2022-12-22T10:23:55;9.10;;;5.67;;
15633;SDS011;14654;48.898;8.308;2022-12-22T10:26:22;13.70;;;9.87;;
15633;SDS011;14654;48.898;8.308;2022-12-22T10:29:09;18.67;;;16.50;;
15633;SDS011;14654;48.898;8.308;2022-12-22T10:34:23;18.63;;;13.70;;
15633;SDS011;14654;48.898;8.308;2022-12-22T10:36:50;12.57;;;8.07;;
15633;SDS011;14654;48.898;8.308;2022-12-22T10:39:19;19.97;;;13.47;;
15633;SDS011;14654;48.898;8.308;2022-12-22T10:41:47;17.70;;;13.13;;
15633;SDS011;14654;48.898;8.308;2022-12-22T10:46:41;19.30;;;13.80;;
15633;SDS011;14654;48.898;8.308;2022-12-22T10:51:51;21.00;;;15.43;;
15633;SDS011;14654;48.898;8.308;2022-12-22T10:54:24;14.70;;;10.20;;
15633;SDS011;14654;48.898;8.308;2022-12-22T10:56:58;12.27;;;6.57;;
15633;SDS011;14654;48.898;8.308;2022-12-22T10:59:25;20.93;;;14.50;;
15633;SDS011;14654;48.898;8.308;2022-12-22T11:01:50;21.30;;;15.47;;
15633;SDS011;14654;48.898;8.308;2022-12-22T11:04:23;25.60;;;17.90;;
15633;SDS011;14654;48.898;8.308;2022-12-22T11:06:50;14.73;;;9.17;;
15633;SDS011;14654;48.898;8.308;2022-12-22T11:09:16;10.63;;;6.03;;
15633;SDS011;14654;48.898;8.308;2022-12-22T11:31:35;7.37;;;5.30;;
15633;SDS011;14654;48.898;8.308;2022-12-22T11:34:18;6.57;;;4.30;;
15633;SDS011;14654;48.898;8.308;2022-12-22T11:39:41;7.43;;;4.23;;
15633;SDS011;14654;48.898;8.308;2022-12-22T11:45:23;11.40;;;6.10;;
15633;SDS011;14654;48.898;8.308;2022-12-22T11:50:44;9.23;;;4.93;;
15633;SDS011;14654;48.898;8.308;2022-12-22T11:58:39;5.53;;;3.13;;
15633;SDS011;14654;48.898;8.308;2022-12-22T12:12:21;6.23;;;2.33;;
15633;SDS011;14654;48.898;8.308;2022-12-22T12:15:04;9.27;;;2.90;;
15633;SDS011;14654;48.898;8.308;2022-12-22T12:25:52;6.57;;;2.53;;
15633;SDS011;14654;48.898;8.308;2022-12-22T12:28:23;4.53;;;2.30;;
15633;SDS011;14654;48.898;8.308;2022-12-22T12:31:02;8.00;;;2.30;;
15633;SDS011;14654;48.898;8.308;2022-12-22T12:33:34;8.97;;;2.70;;
15633;SDS011;14654;48.898;8.308;2022-12-22T12:41:27;7.37;;;2.70;;
15633;SDS011;14654;48.898;8.308;2022-12-22T12:44:00;6.77;;;2.67;;
15633;SDS011;14654;48.898;8.308;2022-12-22T12:51:57;6.47;;;2.20;;
15633;SDS011;14654;48.898;8.308;2022-12-22T12:59:45;7.20;;;2.53;;
15633;SDS011;14654;48.898;8.308;2022-12-22T13:10:40;8.43;;;2.87;;
15633;SDS011;14654;48.898;8.308;2022-12-22T13:13:10;6.67;;;2.50;;
15633;SDS011;14654;48.898;8.308;2022-12-22T13:23:30;7.47;;;2.90;;
15633;SDS011;14654;48.898;8.308;2022-12-22T13:26:13;6.13;;;2.90;;
15633;SDS011;14654;48.898;8.308;2022-12-22T13:28:41;6.33;;;2.40;;
15633;SDS011;14654;48.898;8.308;2022-12-22T13:31:18;5.03;;;2.00;;
15633;SDS011;14654;48.898;8.308;2022-12-22T13:33:47;6.77;;;2.13;;
15633;SDS011;14654;48.898;8.308;2022-12-22T13:36:23;5.40;;;2.10;;
15633;SDS011;14654;48.898;8.308;2022-12-22T13:39:01;8.17;;;2.40;;
15633;SDS011;14654;48.898;8.308;2022-12-22T13:41:30;5.80;;;2.13;;
15633;SDS011;14654;48.898;8.308;2022-12-22T13:43:59;6.77;;;2.40;;
15633;SDS011;14654;48.898;8.308;2022-12-22T13:46:32;5.13;;;2.40;;
15633;SDS011;14654;48.898;8.308;2022-12-22T13:48:58;6.87;;;2.33;;
15633;SDS011;14654;48.898;8.308;2022-12-22T13:51:27;6.43;;;2.60;;
15633;SDS011;14654;48.898;8.308;2022-12-22T13:56:41;5.83;;;2.60;;
15633;SDS011;14654;48.898;8.308;2022-12-22T14:01:56;7.13;;;2.40;;
15633;SDS011;14654;48.898;8.308;2022-12-22T14:04:24;6.07;;;2.67;;
15633;SDS011;14654;48.898;8.308;2022-12-22T14:06:50;6.67;;;2.53;;
15633;SDS011;14654;48.898;8.308;2022-12-22T14:14:27;10.37;;;6.13;;
15633;SDS011;14654;48.898;8.308;2022-12-22T14:17:00;11.23;;;5.37;;
15633;SDS011;14654;48.898;8.308;2022-12-22T14:19:29;7.23;;;3.30;;
15633;SDS011;14654;48.898;8.308;2022-12-22T14:22:04;8.13;;;3.13;;
15633;SDS011;14654;48.898;8.308;2022-12-22T14:24:43;6.10;;;3.20;;
15633;SDS011;14654;48.898;8.308;2022-12-22T14:27:16;6.53;;;2.73;;
15633;SDS011;14654;48.898;8.308;2022-12-22T14:29:47;5.47;;;2.43;;
15633;SDS011;14654;48.898;8.308;2022-12-22T14:32:29;8.73;;;2.93;;
15633;SDS011;14654;48.898;8.308;2022-12-22T14:34:58;8.00;;;3.13;;
15633;SDS011;14654;48.898;8.308;2022-12-22T14:37:23;8.83;;;3.30;;
15633;SDS011;14654;48.898;8.308;2022-12-22T14:39:53;8.47;;;3.70;;
15633;SDS011;14654;48.898;8.308;2022-12-22T14:42:19;8.57;;;3.47;;
15633;SDS011;14654;48.898;8.308;2022-12-22T14:44:45;7.90;;;3.20;;
15633;SDS011;14654;48.898;8.308;2022-12-22T14:49:50;8.40;;;2.90;;
15633;SDS011;14654;48.898;8.308;2022-12-22T14:52:27;9.23;;;3.17;;
15633;SDS011;14654;48.898;8.308;2022-12-22T14:55:04;9.40;;;3.33;;
15633;SDS011;14654;48.898;8.308;2022-12-22T14:57:44;8.60;;;3.57;;
15633;SDS011;14654;48.898;8.308;2022-12-22T15:02:49;9.67;;;3.77;;
15633;SDS011;14654;48.898;8.308;2022-12-22T15:07:57;7.67;;;3.07;;
15633;SDS011;14654;48.898;8.308;2022-12-22T15:10:23;8.33;;;3.13;;
15633;SDS011;14654;48.898;8.308;2022-12-22T15:12:51;8.60;;;3.20;;
15633;SDS011;14654;48.898;8.308;2022-12-22T15:15:22;10.20;;;3.33;;
15633;SDS011;14654;48.898;8.308;2022-12-22T15:17:50;6.70;;;3.10;;
15633;SDS011;14654;48.898;8.308;2022-12-22T15:20:19;8.00;;;2.97;;
15633;SDS011;14654;48.898;8.308;2022-12-22T15:22:46;12.80;;;4.13;;
15633;SDS011;14654;48.898;8.308;2022-12-22T15:25:15;8.37;;;3.60;;
15633;SDS011;14654;48.898;8.308;2022-12-22T15:27:42;11.27;;;4.30;;
15633;SDS011;14654;48.898;8.308;2022-12-22T15:30:08;9.73;;;4.13;;
15633;SDS011;14654;48.898;8.308;2022-12-22T15:32:35;11.50;;;3.60;;
15633;SDS011;14654;48.898;8.308;2022-12-22T15:35:01;10.17;;;3.73;;
15633;SDS011;14654;48.898;8.308;2022-12-22T15:37:27;11.23;;;4.03;;
15633;SDS011;14654;48.898;8.308;2022-12-22T15:39:53;8.33;;;3.90;;
15633;SDS011;14654;48.898;8.308;2022-12-22T15:42:19;8.90;;;4.00;;
15633;SDS011;14654;48.898;8.308;2022-12-22T15:44:45;12.10;;;4.43;;
15633;SDS011;14654;48.898;8.308;2022-12-22T15:47:10;10.63;;;3.90;;
15633;SDS011;14654;48.898;8.308;2022-12-22T15:49:36;11.80;;;3.87;;
15633;SDS011;14654;48.898;8.308;2022-12-22T15:52:02;10.93;;;4.50;;
15633;SDS011;14654;48.898;8.308;2022-12-22T15:54:30;12.57;;;4.33;;
15633;SDS011;14654;48.898;8.308;2022-12-22T15:56:57;9.60;;;3.80;;
15633;SDS011;14654;48.898;8.308;2022-12-22T15:59:24;9.97;;;4.30;;
15633;SDS011;14654;48.898;8.308;2022-12-22T16:01:51;11.80;;;4.30;;
15633;SDS011;14654;48.898;8.308;2022-12-22T16:04:17;13.10;;;5.03;;
15633;SDS011;14654;48.898;8.308;2022-12-22T16:06:43;9.17;;;4.20;;
15633;SDS011;14654;48.898;8.308;2022-12-22T16:09:13;10.90;;;4.17;;
15633;SDS011;14654;48.898;8.308;2022-12-22T16:11:44;11.97;;;4.27;;
15633;SDS011;14654;48.898;8.308;2022-12-22T16:14:11;12.67;;;4.30;;
15633;SDS011;14654;48.898;8.308;2022-12-22T16:16:37;10.17;;;3.60;;
15633;SDS011;14654;48.898;8.308;2022-12-22T16:19:04;16.63;;;5.37;;
15633;SDS011;14654;48.898;8.308;2022-12-22T16:21:30;9.70;;;4.47;;
15633;SDS011;14654;48.898;8.308;2022-12-22T16:23:56;12.43;;;4.07;;
15633;SDS011;14654;48.898;8.308;2022-12-22T16:26:22;10.10;;;4.10;;
15633;SDS011;14654;48.898;8.308;2022-12-22T16:28:48;15.03;;;4.60;;
15633;SDS011;14654;48.898;8.308;2022-12-22T16:31:21;10.07;;;4.20;;
15633;SDS011;14654;48.898;8.308;2022-12-22T16:33:47;12.03;;;4.47;;
15633;SDS011;14654;48.898;8.308;2022-12-22T16:36:13;12.50;;;4.53;;
15633;SDS011;14654;48.898;8.308;2022-12-22T16:38:39;11.50;;;4.50;;
15633;SDS011;14654;48.898;8.308;2022-12-22T16:41:05;13.57;;;4.63;;
15633;SDS011;14654;48.898;8.308;2022-12-22T16:43:41;11.23;;;4.23;;
15633;SDS011;14654;48.898;8.308;2022-12-22T16:46:10;11.07;;;4.13;;
15633;SDS011;14654;48.898;8.308;2022-12-22T16:48:40;9.87;;;4.50;;
15633;SDS011;14654;48.898;8.308;2022-12-22T16:51:10;10.63;;;4.37;;
15633;SDS011;14654;48.898;8.308;2022-12-22T16:53:40;10.50;;;4.57;;
15633;SDS011;14654;48.898;8.308;2022-12-22T16:56:16;10.50;;;3.40;;
15633;SDS011;14654;48.898;8.308;2022-12-22T16:58:44;12.83;;;4.60;;
15633;SDS011;14654;48.898;8.308;2022-12-22T17:01:17;12.80;;;3.87;;
15633;SDS011;14654;48.898;8.308;2022-12-22T17:03:53;12.10;;;4.53;;
15633;SDS011;14654;48.898;8.308;2022-12-22T17:06:20;10.67;;;4.57;;
15633;SDS011;14654;48.898;8.308;2022-12-22T17:08:45;10.73;;;4.23;;
15633;SDS011;14654;48.898;8.308;2022-12-22T17:11:16;11.53;;;4.37;;
15633;SDS011;14654;48.898;8.308;2022-12-22T17:13:45;11.93;;;4.53;;
15633;SDS011;14654;48.898;8.308;2022-12-22T17:16:16;13.93;;;4.67;;
15633;SDS011;14654;48.898;8.308;2022-12-22T17:18:44;14.10;;;4.77;;
15633;SDS011;14654;48.898;8.308;2022-12-22T17:21:09;13.73;;;4.87;;
15633;SDS011;14654;48.898;8.308;2022-12-22T17:23:37;12.00;;;4.63;;
15633;SDS011;14654;48.898;8.308;2022-12-22T17:26:05;12.13;;;4.50;;
15633;SDS011;14654;48.898;8.308;2022-12-22T17:28:34;13.07;;;4.97;;
15633;SDS011;14654;48.898;8.308;2022-12-22T17:31:01;12.83;;;4.87;;